Terminal Aerodrome Forecast
Issued by NWS

Home | Current Version | Previous Version | Graphics & Text | Print | Product List | Glossary On
Versions: 1 2 3 4 5 6 7 8 9 10 11 12 13 14 15 16 17 18 19 20 21 22 23 24 25 26 27 28 29 30 31
000
FTUS45 KGGW 200500
TAFOLF
TAF
KOLF 200523Z 2006/2106 VRB04KT P6SM BKN080
     FM201000 VRB03KT P6SM BKN040
     FM201300 VRB03KT P6SM VCSH BKN020
     FM201700 26007KT 6SM -SHRA OVC025
     FM210000 00000KT P6SM FEW200=

USA.gov is the U.S. government's official web portal to all federal, state and local government web resources and services.